createdAt,value
2023-05-18T00:02:14.548Z,91.40
2023-05-18T00:04:41.627Z,91.60
2023-05-18T00:07:10.191Z,91.90
2023-05-18T00:09:37.423Z,92.20
2023-05-18T00:12:05.945Z,92.30
2023-05-18T00:14:33.010Z,92.50
2023-05-18T00:16:59.784Z,92.80
2023-05-18T00:19:26.753Z,93.20
2023-05-18T00:21:53.715Z,93.80
2023-05-18T00:24:22.169Z,94.10
2023-05-18T00:26:49.461Z,94.60
2023-05-18T00:29:16.467Z,94.90
2023-05-18T00:31:43.387Z,95.00
2023-05-18T00:34:10.926Z,95.10
2023-05-18T00:36:38.483Z,95.10
2023-05-18T00:39:06.293Z,95.30
2023-05-18T00:41:34.522Z,95.40
2023-05-18T00:44:01.602Z,95.70
2023-05-18T00:46:29.048Z,95.90
2023-05-18T00:48:56.995Z,95.80
2023-05-18T00:51:24.776Z,96.10
2023-05-18T00:53:53.770Z,96.50
2023-05-18T00:56:20.938Z,96.60
2023-05-18T00:58:52.064Z,96.90
2023-05-18T01:01:19.890Z,97.20
2023-05-18T01:03:46.767Z,97.60
2023-05-18T01:06:13.542Z,98.20
2023-05-18T01:08:40.489Z,98.70
2023-05-18T01:11:18.992Z,98.90
2023-05-18T01:13:54.288Z,99.40
2023-05-18T01:16:27.836Z,99.90
2023-05-18T01:19:00.267Z,99.90
2023-05-18T01:21:44.117Z,99.90
2023-05-18T01:24:24.231Z,99.90
2023-05-18T01:26:52.934Z,99.90
2023-05-18T01:29:21.543Z,99.90
2023-05-18T01:31:48.375Z,99.90
2023-05-18T01:34:15.204Z,99.90
2023-05-18T01:36:42.083Z,99.90
2023-05-18T01:39:10.032Z,99.90
2023-05-18T01:41:41.620Z,99.90
2023-05-18T01:44:14.940Z,99.90
2023-05-18T01:46:51.452Z,99.90
2023-05-18T01:49:26.839Z,99.90
2023-05-18T01:51:55.895Z,99.90
2023-05-18T01:54:24.613Z,99.90
2023-05-18T01:56:53.709Z,99.90
2023-05-18T01:59:22.970Z,99.90
2023-05-18T02:01:49.939Z,99.90
2023-05-18T02:04:16.999Z,99.90
2023-05-18T02:06:43.867Z,99.90
2023-05-18T02:09:10.812Z,99.90
2023-05-18T02:11:37.765Z,99.90
2023-05-18T02:14:04.586Z,99.90
2023-05-18T02:16:32.972Z,99.90
2023-05-18T02:19:00.063Z,99.90
2023-05-18T02:21:26.994Z,99.90
2023-05-18T02:23:53.890Z,99.90
2023-05-18T02:26:20.728Z,99.90
2023-05-18T02:28:47.611Z,99.90
2023-05-18T02:31:14.428Z,99.90
2023-05-18T02:33:42.690Z,99.90
2023-05-18T02:36:10.680Z,99.90
2023-05-18T02:38:37.989Z,99.90
2023-05-18T02:41:04.834Z,99.90
2023-05-18T02:43:31.725Z,99.90
2023-05-18T02:45:58.699Z,99.90
2023-05-18T02:48:25.568Z,99.90
2023-05-18T02:50:54.001Z,99.90
2023-05-18T02:53:20.936Z,99.90
2023-05-18T02:55:48.092Z,99.90
2023-05-18T02:58:15.295Z,99.90
2023-05-18T03:00:42.534Z,99.90
2023-05-18T03:03:09.751Z,99.90
2023-05-18T03:05:36.841Z,99.90
2023-05-18T03:08:05.404Z,99.90
2023-05-18T03:10:32.217Z,99.90
2023-05-18T03:12:59.068Z,99.90
2023-05-18T03:15:25.933Z,99.90
2023-05-18T03:17:52.777Z,99.90
2023-05-18T03:20:19.789Z,99.90
2023-05-18T03:22:46.620Z,99.90
2023-05-18T03:25:14.821Z,99.90
2023-05-18T03:27:41.746Z,99.90
2023-05-18T03:30:09.649Z,99.90
2023-05-18T03:32:36.562Z,99.90
2023-05-18T03:35:03.920Z,99.90
2023-05-18T03:37:30.779Z,99.90
2023-05-18T03:40:00.197Z,99.90
2023-05-18T03:42:28.483Z,99.90
2023-05-18T03:44:55.408Z,99.90
2023-05-18T03:47:22.220Z,99.90
2023-05-18T03:49:49.066Z,99.90
2023-05-18T03:52:16.023Z,99.90
2023-05-18T03:54:42.852Z,99.90
2023-05-18T03:57:09.634Z,99.90
2023-05-18T03:59:37.932Z,99.90
2023-05-18T04:02:05.745Z,99.90
2023-05-18T04:04:32.661Z,99.90
2023-05-18T04:06:59.678Z,99.90
2023-05-18T04:09:27.049Z,99.90
2023-05-18T04:11:54.015Z,99.90
2023-05-18T04:14:21.063Z,99.90
2023-05-18T04:16:49.474Z,99.90
2023-05-18T04:19:16.543Z,99.90
2023-05-18T04:21:43.449Z,99.90
2023-05-18T04:24:10.334Z,99.90
2023-05-18T04:26:37.187Z,99.90
2023-05-18T04:29:04.320Z,99.90
2023-05-18T04:31:31.162Z,99.90
2023-05-18T04:33:59.390Z,99.90
2023-05-18T04:36:26.333Z,99.90
2023-05-18T04:38:53.172Z,99.90
2023-05-18T04:41:19.990Z,99.90
2023-05-18T04:43:46.851Z,99.90
2023-05-18T04:46:13.788Z,99.90
2023-05-18T04:48:40.660Z,99.90
2023-05-18T04:51:08.954Z,99.90
2023-05-18T04:53:36.014Z,99.90
2023-05-18T04:56:02.878Z,99.90
2023-05-18T04:58:30.571Z,99.90
2023-05-18T05:00:57.595Z,99.90
2023-05-18T05:03:24.607Z,99.90
2023-05-18T05:05:51.518Z,99.90
2023-05-18T05:08:19.706Z,99.90
2023-05-18T05:10:46.522Z,99.90
2023-05-18T05:13:13.449Z,99.90
2023-05-18T05:15:40.296Z,99.90
2023-05-18T05:18:07.203Z,99.90
2023-05-18T05:20:34.261Z,99.90
2023-05-18T05:23:01.147Z,99.90
2023-05-18T05:25:29.656Z,99.90
2023-05-18T05:27:56.756Z,99.90
2023-05-18T05:30:23.678Z,99.90
2023-05-18T05:32:50.805Z,99.90
2023-05-18T05:35:17.716Z,99.90
2023-05-18T05:37:44.561Z,99.90
2023-05-18T05:40:11.973Z,99.90
2023-05-18T05:42:40.663Z,99.90
2023-05-18T05:45:08.696Z,99.90
2023-05-18T05:47:35.575Z,99.90
2023-05-18T05:50:02.566Z,99.90
2023-05-18T05:52:29.400Z,99.90
2023-05-18T05:54:56.625Z,99.90
2023-05-18T05:57:23.547Z,99.90
2023-05-18T05:59:51.822Z,99.90
2023-05-18T06:02:18.751Z,99.90
2023-05-18T06:04:45.644Z,99.90
2023-05-18T06:07:12.553Z,99.90
2023-05-18T06:09:39.337Z,99.90
2023-05-18T06:12:07.062Z,99.90
2023-05-18T06:14:34.030Z,99.90
2023-05-18T06:17:02.367Z,99.90
2023-05-18T06:19:29.522Z,99.90
2023-05-18T06:21:56.594Z,99.90
2023-05-18T06:24:23.608Z,99.90
2023-05-18T06:26:50.557Z,99.90
2023-05-18T06:29:17.685Z,99.90
2023-05-18T06:31:45.430Z,99.90
2023-05-18T06:34:14.452Z,99.90
2023-05-18T06:36:41.697Z,99.90
2023-05-18T06:39:09.240Z,99.90
2023-05-18T06:41:36.524Z,99.90
2023-05-18T06:44:03.678Z,99.90
2023-05-18T06:46:31.005Z,99.90
2023-05-18T06:48:58.213Z,99.90
2023-05-18T06:51:27.043Z,99.90
2023-05-18T06:53:53.966Z,99.90
2023-05-18T06:56:20.939Z,99.90
2023-05-18T06:58:48.356Z,99.90
2023-05-18T07:01:15.624Z,99.90
2023-05-18T07:03:43.050Z,99.90
2023-05-18T07:06:10.236Z,99.90
2023-05-18T07:08:38.900Z,99.90
2023-05-18T07:11:06.413Z,99.10
2023-05-18T07:13:33.611Z,97.90
2023-05-18T07:16:01.734Z,96.20
2023-05-18T07:18:28.922Z,96.10
2023-05-18T07:20:55.964Z,95.50
2023-05-18T07:23:23.005Z,94.80
2023-05-18T07:25:51.982Z,93.60
2023-05-18T07:28:19.069Z,92.30
2023-05-18T07:30:46.183Z,91.10
2023-05-18T07:33:13.191Z,90.30
2023-05-18T07:35:40.305Z,90.30
2023-05-18T07:38:07.231Z,89.90
2023-05-18T07:40:34.480Z,87.60
2023-05-18T07:43:03.255Z,86.60
2023-05-18T07:45:30.492Z,86.50
2023-05-18T07:47:57.933Z,86.20
2023-05-18T07:50:25.552Z,86.40
2023-05-18T07:52:52.660Z,86.20
2023-05-18T07:55:19.684Z,85.20
2023-05-18T07:57:46.755Z,84.60
2023-05-18T08:00:16.890Z,84.30
2023-05-18T08:02:44.442Z,82.60
2023-05-18T08:05:11.490Z,80.30
2023-05-18T08:07:39.574Z,79.10
2023-05-18T08:10:07.127Z,78.50
2023-05-18T08:12:34.273Z,77.70
2023-05-18T08:15:01.417Z,77.70
2023-05-18T08:17:30.100Z,77.70
2023-05-18T08:19:57.287Z,77.10
2023-05-18T08:22:24.391Z,76.80
2023-05-18T08:24:51.508Z,76.80
2023-05-18T08:27:18.756Z,76.00
2023-05-18T08:29:45.818Z,75.30
2023-05-18T08:32:13.221Z,74.70
2023-05-18T08:34:41.973Z,74.50
2023-05-18T08:37:09.054Z,74.20
2023-05-18T08:39:36.104Z,74.40
2023-05-18T08:42:07.563Z,74.70
2023-05-18T08:44:39.361Z,75.60
2023-05-18T08:47:10.275Z,75.70
2023-05-18T08:49:38.067Z,75.20
2023-05-18T08:52:09.058Z,74.70
2023-05-18T08:54:37.753Z,74.00
2023-05-18T08:57:08.856Z,73.90
2023-05-18T08:59:40.920Z,73.00
2023-05-18T09:02:08.200Z,72.20
2023-05-18T09:04:36.099Z,69.40
2023-05-18T09:07:05.453Z,69.60
2023-05-18T09:09:34.971Z,68.20
2023-05-18T09:12:02.936Z,68.60
2023-05-18T09:14:31.730Z,68.30
2023-05-18T09:16:59.075Z,68.70
2023-05-18T09:19:26.106Z,68.70
2023-05-18T09:21:53.094Z,68.80
2023-05-18T09:24:33.314Z,69.60
2023-05-18T09:27:01.832Z,69.80
2023-05-18T09:29:31.688Z,70.00
2023-05-18T09:32:03.422Z,70.00
2023-05-18T09:34:39.986Z,69.70
2023-05-18T09:37:07.055Z,68.20
2023-05-18T09:39:34.076Z,67.60
2023-05-18T09:42:03.661Z,67.40
2023-05-18T09:44:31.771Z,67.00
2023-05-18T09:46:58.961Z,67.60
2023-05-18T09:49:26.060Z,67.60
2023-05-18T09:51:53.421Z,67.60
2023-05-18T09:54:21.999Z,67.40
2023-05-18T09:57:02.344Z,67.10
2023-05-18T09:59:38.691Z,67.00
2023-05-18T10:02:06.553Z,66.40
2023-05-18T10:04:38.167Z,65.80
2023-05-18T10:07:10.082Z,65.10
2023-05-18T10:09:37.164Z,64.80
2023-05-18T10:12:10.000Z,64.80
2023-05-18T10:14:39.662Z,64.20
2023-05-18T10:17:14.894Z,63.60
2023-05-18T10:19:42.774Z,62.10
2023-05-18T10:22:10.452Z,62.30
2023-05-18T10:24:42.470Z,61.50
2023-05-18T10:27:10.517Z,61.30
2023-05-18T10:29:41.133Z,59.70
2023-05-18T10:32:12.794Z,58.90
2023-05-18T10:34:41.806Z,58.30
2023-05-18T10:37:11.903Z,57.40
2023-05-18T10:39:41.354Z,56.90
2023-05-18T10:42:10.180Z,57.00
2023-05-18T10:44:40.746Z,56.70
2023-05-18T10:47:09.038Z,57.30
2023-05-18T10:49:37.678Z,57.80
2023-05-18T10:52:06.516Z,58.40
2023-05-18T10:54:34.401Z,59.20
2023-05-18T10:57:01.797Z,59.40
2023-05-18T10:59:29.249Z,59.60
2023-05-18T11:01:59.012Z,60.50
2023-05-18T11:04:27.814Z,60.50
2023-05-18T11:06:57.673Z,60.20
2023-05-18T11:09:25.805Z,60.90
2023-05-18T11:11:53.929Z,61.20
2023-05-18T11:14:31.365Z,61.80
2023-05-18T11:17:22.522Z,61.50
2023-05-18T11:20:16.265Z,61.10
2023-05-18T11:22:48.895Z,61.10
2023-05-18T11:25:38.810Z,60.90
2023-05-18T11:28:08.050Z,60.80
2023-05-18T11:30:49.496Z,60.60
2023-05-18T11:33:23.495Z,60.20
2023-05-18T11:36:14.941Z,60.10
2023-05-18T11:38:53.420Z,60.10
2023-05-18T11:41:32.284Z,58.60
2023-05-18T11:44:16.432Z,57.40
2023-05-18T11:46:54.832Z,57.00
2023-05-18T11:49:25.175Z,57.00
2023-05-18T11:52:05.918Z,56.20
2023-05-18T11:54:40.392Z,55.90
2023-05-18T11:57:08.143Z,55.40
2023-05-18T11:59:38.212Z,55.20
2023-05-18T12:02:05.625Z,55.20
2023-05-18T12:04:34.600Z,54.80
2023-05-18T12:07:05.437Z,54.00
2023-05-18T12:09:32.994Z,54.00
2023-05-18T12:12:01.178Z,53.90
2023-05-18T12:14:29.099Z,53.90
2023-05-18T12:16:58.615Z,53.40
2023-05-18T12:19:25.842Z,52.50
2023-05-18T12:21:56.754Z,51.70
2023-05-18T12:24:25.838Z,51.20
2023-05-18T12:26:53.357Z,51.00
2023-05-18T12:29:21.379Z,50.80
2023-05-18T12:31:48.988Z,51.00
2023-05-18T12:34:16.228Z,50.70
2023-05-18T12:36:51.823Z,50.50
2023-05-18T12:39:20.798Z,50.60
2023-05-18T12:41:48.156Z,51.10
2023-05-18T12:44:15.385Z,51.60
2023-05-18T12:46:43.550Z,51.70
2023-05-18T12:49:11.477Z,52.60
2023-05-18T12:51:39.729Z,53.10
2023-05-18T12:54:09.240Z,53.70
2023-05-18T12:56:58.339Z,53.90
2023-05-18T12:59:27.497Z,54.10
2023-05-18T13:01:55.375Z,54.90
2023-05-18T13:04:23.167Z,55.80
2023-05-18T13:06:50.551Z,56.20
2023-05-18T13:09:18.287Z,56.20
2023-05-18T13:12:06.330Z,56.00
2023-05-18T13:14:39.348Z,55.60
2023-05-18T13:17:06.406Z,55.00
2023-05-18T13:19:35.286Z,55.00
2023-05-18T13:22:02.390Z,55.10
2023-05-18T13:24:29.322Z,55.20
2023-05-18T13:26:57.036Z,55.80
2023-05-18T13:29:23.977Z,56.50
2023-05-18T13:32:08.542Z,57.00
2023-05-18T13:34:35.654Z,58.10
2023-05-18T13:37:02.677Z,58.50
2023-05-18T13:39:29.791Z,58.00
2023-05-18T13:41:57.293Z,57.50
2023-05-18T13:44:38.142Z,57.20
2023-05-18T13:47:06.333Z,56.80
2023-05-18T13:49:34.766Z,55.90
2023-05-18T13:52:01.659Z,56.00
2023-05-18T13:54:29.230Z,56.20
2023-05-18T13:56:56.542Z,55.60
2023-05-18T13:59:23.699Z,54.60
2023-05-18T14:01:50.756Z,54.10
2023-05-18T14:04:17.798Z,53.80
2023-05-18T14:06:46.239Z,53.80
2023-05-18T14:09:13.174Z,53.80
2023-05-18T14:11:40.298Z,54.10
2023-05-18T14:14:08.076Z,54.80
2023-05-18T14:16:35.087Z,56.00
2023-05-18T14:19:02.164Z,56.80
2023-05-18T14:21:29.004Z,58.10
2023-05-18T14:23:57.529Z,58.80
2023-05-18T14:26:24.609Z,59.80
2023-05-18T14:28:52.115Z,60.30
2023-05-18T14:31:19.206Z,60.50
2023-05-18T14:33:46.186Z,60.70
2023-05-18T14:36:13.169Z,60.70
2023-05-18T14:38:40.640Z,61.10
2023-05-18T14:41:09.181Z,61.80
2023-05-18T14:43:36.225Z,62.70
2023-05-18T14:48:35.623Z,63.60
2023-05-18T14:51:02.740Z,64.00
2023-05-18T14:53:30.202Z,64.30
2023-05-18T14:55:57.148Z,64.40
2023-05-18T14:58:25.393Z,64.70
2023-05-18T15:00:52.346Z,64.70
2023-05-18T15:03:19.340Z,65.00
2023-05-18T15:05:46.265Z,65.40
2023-05-18T15:08:13.507Z,65.70
2023-05-18T15:10:40.449Z,66.30
2023-05-18T15:13:07.568Z,66.70
2023-05-18T15:15:36.194Z,67.00
2023-05-18T15:18:03.361Z,66.80
2023-05-18T15:20:30.655Z,66.70
2023-05-18T15:22:58.071Z,66.60
2023-05-18T15:25:25.033Z,66.20
2023-05-18T15:27:51.975Z,66.00
2023-05-18T15:30:19.164Z,66.10
2023-05-18T15:32:47.546Z,66.40
2023-05-18T15:35:14.582Z,66.60
2023-05-18T15:37:41.503Z,66.70
2023-05-18T15:40:09.260Z,66.90
2023-05-18T15:42:36.695Z,66.90
2023-05-18T15:45:04.032Z,67.10
2023-05-18T15:47:30.987Z,67.50
2023-05-18T15:49:59.590Z,68.00
2023-05-18T15:52:26.684Z,68.60
2023-05-18T15:54:53.728Z,69.20
2023-05-18T15:57:20.620Z,69.60
2023-05-18T15:59:47.526Z,70.30
2023-05-18T16:02:15.068Z,70.40
2023-05-18T16:04:42.234Z,70.40
2023-05-18T16:07:11.150Z,70.50
2023-05-18T16:09:38.176Z,70.60
2023-05-18T16:12:05.775Z,70.50
2023-05-18T16:14:33.615Z,70.50
2023-05-18T16:17:00.824Z,70.70
2023-05-18T16:19:27.961Z,71.30
2023-05-18T16:21:55.066Z,71.50
2023-05-18T16:24:23.551Z,71.90
2023-05-18T16:26:50.524Z,72.60
2023-05-18T16:29:17.525Z,72.70
2023-05-18T16:31:44.564Z,72.90
2023-05-18T16:34:11.734Z,73.20
2023-05-18T16:36:38.897Z,73.10
2023-05-18T16:39:05.995Z,73.30
2023-05-18T16:41:34.439Z,73.40
2023-05-18T16:44:01.819Z,73.60
2023-05-18T16:46:28.874Z,73.90
2023-05-18T16:48:56.256Z,73.90
2023-05-18T16:51:24.039Z,74.00
2023-05-18T16:53:52.225Z,74.20
2023-05-18T16:56:19.219Z,74.20
2023-05-18T16:58:47.693Z,74.20
2023-05-18T17:01:26.651Z,74.20
2023-05-18T17:03:54.824Z,74.40
2023-05-18T17:06:21.807Z,74.40
2023-05-18T17:08:48.637Z,74.80
2023-05-18T17:11:15.588Z,74.90
2023-05-18T17:13:42.430Z,75.40
2023-05-18T17:16:10.889Z,75.60
2023-05-18T17:18:37.801Z,75.80
2023-05-18T17:21:04.803Z,76.30
2023-05-18T17:23:32.027Z,76.70
2023-05-18T17:26:05.787Z,76.80
2023-05-18T17:28:33.828Z,77.10
2023-05-18T17:31:00.918Z,77.40
2023-05-18T17:33:29.401Z,77.90
2023-05-18T17:35:56.384Z,78.10
2023-05-18T17:38:23.235Z,78.30
2023-05-18T17:40:50.445Z,78.40
2023-05-18T17:43:17.300Z,78.10
2023-05-18T17:45:44.250Z,78.20
2023-05-18T17:48:11.121Z,78.60
2023-05-18T17:50:39.447Z,78.50
2023-05-18T17:53:06.378Z,78.80
2023-05-18T17:55:33.374Z,78.90
2023-05-18T17:58:00.309Z,79.10
2023-05-18T18:00:27.263Z,79.30
2023-05-18T18:02:54.278Z,79.30
2023-05-18T18:05:21.249Z,79.50
2023-05-18T18:07:49.719Z,79.80
2023-05-18T18:10:16.671Z,80.20
2023-05-18T18:12:43.681Z,80.60
2023-05-18T18:15:11.480Z,80.90
2023-05-18T18:17:38.550Z,81.20
2023-05-18T18:20:06.837Z,81.60
2023-05-18T18:22:35.805Z,81.90
2023-05-18T18:25:04.816Z,82.10
2023-05-18T18:27:31.690Z,82.40
2023-05-18T18:29:58.677Z,82.50
2023-05-18T18:32:25.903Z,82.50
2023-05-18T18:34:52.855Z,82.60
2023-05-18T18:37:19.718Z,83.00
2023-05-18T18:39:46.639Z,82.90
2023-05-18T18:42:18.676Z,83.10
2023-05-18T18:44:48.065Z,83.40
2023-05-18T18:47:15.111Z,83.70
2023-05-18T18:49:42.082Z,83.70
2023-05-18T18:52:10.286Z,84.10
2023-05-18T18:54:38.110Z,84.40
2023-05-18T18:57:05.452Z,84.70
2023-05-18T18:59:33.776Z,85.20
2023-05-18T19:02:00.802Z,86.30
2023-05-18T19:04:28.385Z,86.70
2023-05-18T19:06:55.552Z,87.10
2023-05-18T19:09:22.971Z,87.20
2023-05-18T19:11:49.787Z,87.30
2023-05-18T19:14:16.769Z,87.30
2023-05-18T19:17:07.888Z,87.70
2023-05-18T19:19:34.772Z,87.60
2023-05-18T19:22:01.761Z,88.00
2023-05-18T19:24:28.931Z,88.40
2023-05-18T19:26:55.959Z,88.50
2023-05-18T19:29:23.494Z,88.60
2023-05-18T19:31:50.599Z,88.70
2023-05-18T19:34:19.248Z,89.00
2023-05-18T19:36:46.180Z,89.00
2023-05-18T19:39:14.973Z,89.70
2023-05-18T19:41:41.823Z,89.90
2023-05-18T19:44:08.670Z,89.90
2023-05-18T19:46:36.158Z,89.80
2023-05-18T19:49:03.402Z,90.00
2023-05-18T19:51:31.879Z,90.10
2023-05-18T19:53:58.885Z,90.20
2023-05-18T19:56:25.910Z,90.10
2023-05-18T19:58:52.814Z,90.20
2023-05-18T20:01:20.318Z,90.30
2023-05-18T20:03:47.377Z,90.40
2023-05-18T20:06:14.518Z,90.50
2023-05-18T20:08:42.800Z,90.50
2023-05-18T20:11:09.833Z,90.70
2023-05-18T20:13:36.701Z,90.60
2023-05-18T20:16:03.852Z,90.80
2023-05-18T20:18:31.134Z,90.80
2023-05-18T20:20:58.308Z,90.80
2023-05-18T20:23:25.439Z,90.80
2023-05-18T20:25:53.872Z,90.80
2023-05-18T20:28:21.043Z,90.70
2023-05-18T20:30:48.502Z,90.70
2023-05-18T20:33:15.538Z,90.60
2023-05-18T20:35:42.520Z,90.50
2023-05-18T20:38:09.779Z,90.40
2023-05-18T20:40:36.608Z,90.40
2023-05-18T20:43:05.259Z,90.40
2023-05-18T20:45:32.244Z,90.30
2023-05-18T20:47:59.334Z,90.30
2023-05-18T20:50:26.309Z,90.40
2023-05-18T20:52:54.167Z,90.40
2023-05-18T20:55:21.344Z,90.50
2023-05-18T20:57:48.403Z,90.50
2023-05-18T21:00:18.048Z,90.70
2023-05-18T21:02:45.919Z,90.80
2023-05-18T21:05:14.508Z,91.20
2023-05-18T21:07:41.458Z,91.10
2023-05-18T21:10:09.914Z,91.20
2023-05-18T21:12:38.332Z,91.40
2023-05-18T21:15:06.277Z,91.50
2023-05-18T21:17:34.955Z,91.60
2023-05-18T21:20:02.022Z,91.70
2023-05-18T21:22:29.481Z,91.80
2023-05-18T21:24:56.505Z,91.80
2023-05-18T21:27:23.558Z,91.80
2023-05-18T21:29:50.575Z,91.90
2023-05-18T21:32:17.554Z,91.80
2023-05-18T21:34:46.131Z,92.00
2023-05-18T21:37:13.201Z,91.90
2023-05-18T21:39:40.280Z,92.10
2023-05-18T21:42:07.680Z,92.10
2023-05-18T21:44:34.557Z,92.10
2023-05-18T21:47:02.056Z,92.20
2023-05-18T21:49:29.207Z,92.20
2023-05-18T21:51:58.094Z,92.30
2023-05-18T21:54:24.984Z,92.30
2023-05-18T21:56:51.929Z,92.40
2023-05-18T21:59:18.852Z,92.40
2023-05-18T22:01:45.862Z,92.50
2023-05-18T22:04:15.048Z,92.40
2023-05-18T22:06:42.034Z,92.50
2023-05-18T22:09:10.412Z,92.60
2023-05-18T22:11:38.593Z,92.70
2023-05-18T22:14:05.634Z,92.80
2023-05-18T22:16:32.546Z,92.90
2023-05-18T22:18:59.609Z,93.00
2023-05-18T22:21:27.332Z,93.10
2023-05-18T22:23:54.141Z,93.30
2023-05-18T22:26:22.920Z,93.40
2023-05-18T22:28:50.196Z,93.60
2023-05-18T22:31:17.854Z,93.60
2023-05-18T22:33:44.874Z,93.70
2023-05-18T22:36:11.819Z,93.90
2023-05-18T22:38:38.761Z,93.90
2023-05-18T22:41:05.633Z,93.90
2023-05-18T22:43:34.044Z,93.90
2023-05-18T22:46:01.208Z,93.90
2023-05-18T22:48:28.299Z,94.00
2023-05-18T22:50:55.714Z,94.00
2023-05-18T22:53:22.638Z,94.00
2023-05-18T22:55:49.691Z,94.00
2023-05-18T22:58:17.145Z,94.20
2023-05-18T23:00:45.640Z,94.30
2023-05-18T23:03:12.713Z,94.30
2023-05-18T23:05:39.662Z,94.30
2023-05-18T23:08:06.619Z,94.40
2023-05-18T23:10:33.875Z,94.50
2023-05-18T23:13:00.975Z,94.60
2023-05-18T23:15:29.213Z,94.70
2023-05-18T23:17:57.548Z,94.80
2023-05-18T23:20:24.459Z,95.10
2023-05-18T23:22:51.453Z,95.10
2023-05-18T23:25:18.774Z,95.20
2023-05-18T23:27:45.905Z,95.40
2023-05-18T23:30:13.329Z,95.50
2023-05-18T23:32:40.835Z,95.50
2023-05-18T23:35:13.234Z,95.60
2023-05-18T23:37:42.048Z,95.70
2023-05-18T23:40:11.283Z,95.80
2023-05-18T23:42:38.839Z,95.90
2023-05-18T23:45:07.204Z,96.10
2023-05-18T23:47:34.804Z,96.20
2023-05-18T23:50:02.194Z,96.40
2023-05-18T23:52:32.885Z,96.50
2023-05-18T23:55:00.385Z,96.70
2023-05-18T23:57:27.816Z,96.90
2023-05-18T23:59:55.777Z,96.90
